Capitol Logistics 238




TJSJ
Luis Munoz Marin International Airport
San Juan, PR
KMIA
Miami International Airport
Miami, US

Activity Log

Date Flight Route Aircraft Duration
04/12/2022 CPX2140 ACONY3 PALDE FEKKO Y308 MADIZ VIICE1 B763 2h 48m
09/23/2021 CPX238 ACONY3 PALDE FEKKO Y308 FOWEE FLIPR6 B752 2h 33m
08/12/2021 CPX2140 ACONY3 PALDE FEKKO Y308 FOWEE FLIPR7 A30F 2h 29m
08/11/2021 CPX238 ACONY3 PALDE FEKKO Y308 FOWEE FLIPR6 A30F 2h 31m
04/17/2021 CPX2140 ACONY3 PALDE FEKKO Y308 FOWEE FLIPR7 B763 2h 50m
10/12/2019 CPX238 ACONY3 PALDE FEKKO Y308 FOWEE FLIPR6 B763 2h 48m
06/19/2019 CPX238 ACONY3 PALDE FEKKO Y308 FOWEE FLIPR6 B763 2h 33m
06/06/2019 CPX238 ACONY3 PALDE FEKKO Y308 FOWEE FLIPR6 B763 2h 20m
04/06/2019 CPX238 ACONY3 PALDE FEKKO Y308 FOWEE FLIPR6 B763 2h 50m
02/17/2019 CPX238 ACONY3 PALDE FEKKO Y308 FOWEE FLIPR6 B763 2h 41m

Route Details

Aircraft Information
Group: Narrowbodies
Types: B738,B752
Route Data
Demand: V
Distance: 909nm
Duration: 2h 25m
Recm'd Route: ACONY3 PALDE FEKKO Y308 FOWEE FLIPR6
Origin Wx: TJSJ 270556Z 10005KT 10SM FEW028 25/23 A3003 RMK AO2 SLP166 T02500228 10267 20250 58016
Dest. Wx: KMIA 270553Z 11011KT 10SM FEW019 SCT050 SCT080 26/23 A3004 RMK AO2 SLP172 T02610228 10272 20261 58008 $
Notes:

Financial History
Total Freight: 671,164lbs
Average Load: 67,116lbs/flt
Fuel Used: 251,348lbs
Avg. Fuel Used: 25,135lbs/flt
Fuel Expense: $92,115
Avg. Fuel Expense: $9,212
Avg. Fuel Cost: $0.36/lbs
Total Gross Income: $1,083,779
Pilot Pay: $1,970
Total Expenses: $154,535
Total Revenue: $831,049
Average Revenue: $108,377.91